createdAt,value
2022-08-09T00:00:12.852Z,100145.41
2022-08-09T00:01:55.271Z,100141.38
2022-08-09T00:04:06.398Z,100146.84
2022-08-09T00:06:17.602Z,100139.22
2022-08-09T00:07:15.446Z,100131.59
2022-08-09T00:08:53.281Z,100140.53
2022-08-09T00:10:29.537Z,100139.22
2022-08-09T00:12:04.690Z,100138.66
2022-08-09T00:13:40.768Z,100143.41
2022-08-09T00:15:15.687Z,100133.75
2022-08-09T00:16:49.213Z,100132.91
2022-08-09T00:18:22.791Z,100141.69
2022-08-09T00:19:56.541Z,100132.78
2022-08-09T00:21:30.710Z,100133.31
2022-08-09T00:23:08.476Z,100131.91
2022-08-09T00:24:55.808Z,100126.28
2022-08-09T00:26:32.309Z,100128.88
2022-08-09T00:28:06.815Z,100130.31
2022-08-09T00:30:24.366Z,100122.84
2022-08-09T00:32:00.969Z,100124.13
2022-08-09T00:33:32.661Z,100128.16
2022-08-09T00:35:16.144Z,100130.31
2022-08-09T00:36:49.361Z,100131.63
2022-08-09T00:38:21.821Z,100130.91
2022-08-09T00:40:09.488Z,100129.59
2022-08-09T00:44:15.308Z,100133.94
2022-08-09T00:44:19.571Z,100129.03
2022-08-09T00:45:34.747Z,100136.78
2022-08-09T00:47:07.456Z,100134.75
2022-08-09T00:48:40.164Z,100134.75
2022-08-09T00:50:19.687Z,100133.50
2022-08-09T00:51:55.828Z,100141.13
2022-08-09T00:53:28.544Z,100134.22
2022-08-09T00:55:02.082Z,100141.69
2022-08-09T00:56:37.021Z,100132.03
2022-08-09T00:58:14.739Z,100134.66
2022-08-09T00:59:54.624Z,100130.47
2022-08-09T01:01:32.378Z,100128.88
2022-08-09T01:03:22.523Z,100134.34
2022-08-09T01:05:13.915Z,100122.56
2022-08-09T01:07:38.064Z,100130.63
2022-08-09T01:09:15.182Z,100131.09
2022-08-09T01:11:08.543Z,100122.88
2022-08-09T01:12:44.142Z,100131.66
2022-08-09T01:14:28.457Z,100128.94
2022-08-09T01:16:01.193Z,100130.19
2022-08-09T01:17:35.847Z,100136.41
2022-08-09T01:19:16.660Z,100137.69
2022-08-09T01:21:00.545Z,100135.66
2022-08-09T01:22:54.809Z,100134.22
2022-08-09T01:24:30.879Z,100125.34
2022-08-09T01:26:06.088Z,100134.13
2022-08-09T01:27:39.458Z,100131.22
2022-08-09T01:29:15.449Z,100123.03
2022-08-09T01:30:51.594Z,100128.50
2022-08-09T01:32:34.237Z,100122.91
2022-08-09T01:34:08.856Z,100131.22
2022-08-09T01:35:45.329Z,100134.22
2022-08-09T01:37:42.758Z,100125.47
2022-08-09T01:39:11.243Z,100129.06
2022-08-09T01:40:52.857Z,100122.16
2022-08-09T01:42:39.045Z,100124.91
2022-08-09T01:44:13.867Z,100128.78
2022-08-09T01:45:48.596Z,100125.34
2022-08-09T01:47:21.458Z,100119.25
2022-08-09T01:48:59.760Z,100115.53
2022-08-09T01:50:36.921Z,100123.47
2022-08-09T01:52:11.380Z,100130.09
2022-08-09T01:53:53.690Z,100127.94
2022-08-09T01:55:28.895Z,100131.84
2022-08-09T01:57:10.885Z,100129.66
2022-08-09T01:58:49.021Z,100124.63
2022-08-09T02:00:35.001Z,100127.22
2022-08-09T02:02:09.819Z,100133.16
2022-08-09T02:03:43.110Z,100122.22
2022-08-09T02:05:17.025Z,100133.00
2022-08-09T02:07:18.557Z,100129.69
2022-08-09T02:09:02.901Z,100143.22
2022-08-09T02:10:39.520Z,100136.19
2022-08-09T02:12:18.041Z,100143.38
2022-08-09T02:14:06.573Z,100138.19
2022-08-09T02:15:49.606Z,100137.91
2022-08-09T02:17:59.318Z,100143.38
2022-08-09T02:19:20.359Z,100144.69
2022-08-09T02:20:56.539Z,100143.97
2022-08-09T02:22:39.837Z,100145.97
2022-08-09T02:24:26.096Z,100152.28
2022-08-09T02:26:00.174Z,100154.88
2022-08-09T02:27:57.952Z,100144.97
2022-08-09T02:29:27.505Z,100150.56
2022-08-09T02:31:08.867Z,100148.72
2022-08-09T02:32:43.686Z,100157.75
2022-08-09T02:34:41.661Z,100160.75
2022-08-09T02:36:26.365Z,100153.13
2022-08-09T02:38:00.235Z,100151.22
2022-08-09T02:39:42.016Z,100156.09
2022-08-09T02:41:19.641Z,100157.69
2022-08-09T02:42:55.189Z,100157.22
2022-08-09T02:44:36.623Z,100156.19
2022-08-09T02:46:10.491Z,100155.34
2022-08-09T02:47:57.793Z,100157.06
2022-08-09T02:49:38.305Z,100162.91
2022-08-09T02:51:12.977Z,100159.88
2022-08-09T02:52:49.863Z,100159.00
2022-08-09T02:54:28.359Z,100162.00
2022-08-09T02:56:04.974Z,100161.69
2022-08-09T02:57:59.699Z,100160.09
2022-08-09T02:59:36.535Z,100156.91
2022-08-09T03:01:10.807Z,100163.34
2022-08-09T03:02:58.400Z,100155.41
2022-08-09T03:04:33.732Z,100152.94
2022-08-09T03:06:14.595Z,100150.63
2022-08-09T03:07:55.118Z,100147.44
2022-08-09T03:09:33.634Z,100153.31
2022-08-09T03:11:06.856Z,100143.50
2022-08-09T03:12:44.001Z,100140.47
2022-08-09T03:14:28.068Z,100151.22
2022-08-09T03:16:06.269Z,100155.81
2022-08-09T03:17:42.617Z,100152.75
2022-08-09T03:19:57.744Z,100150.44
2022-08-09T03:21:16.015Z,100153.72
2022-08-09T03:22:56.786Z,100150.28
2022-08-09T03:24:42.183Z,100154.28
2022-08-09T03:26:29.382Z,100155.56
2022-08-09T03:28:11.269Z,100155.56
2022-08-09T03:30:00.664Z,100152.28
2022-08-09T03:31:42.545Z,100149.38
2022-08-09T03:33:52.994Z,100150.69
2022-08-09T03:35:24.994Z,100153.41
2022-08-09T03:37:56.620Z,100145.09
2022-08-09T03:39:07.364Z,100151.66
2022-08-09T03:40:39.630Z,100145.31
2022-08-09T03:42:13.429Z,100152.06
2022-08-09T03:44:08.127Z,100152.06
2022-08-09T03:46:05.126Z,100155.34
2022-08-09T03:47:36.660Z,100151.91
2022-08-09T03:49:17.370Z,100154.63
2022-08-09T03:50:52.716Z,100152.44
2022-08-09T03:52:26.319Z,100151.50
2022-08-09T03:54:02.950Z,100150.25
2022-08-09T03:55:40.897Z,100144.91
2022-08-09T03:57:20.268Z,100142.38
2022-08-09T03:58:53.488Z,100145.25
2022-08-09T04:00:27.460Z,100150.28
2022-08-09T04:02:00.017Z,100143.00
2022-08-09T04:03:46.495Z,100146.75
2022-08-09T04:05:27.308Z,100147.78
2022-08-09T04:07:01.179Z,100145.22
2022-08-09T04:08:33.686Z,100154.97
2022-08-09T04:10:06.344Z,100149.13
2022-08-09T04:11:51.521Z,100147.97
2022-08-09T04:13:44.883Z,100152.88
2022-08-09T04:15:29.659Z,100149.19
2022-08-09T04:17:09.176Z,100159.69
2022-08-09T04:18:42.500Z,100156.53
2022-08-09T04:20:18.346Z,100156.88
2022-08-09T04:21:50.617Z,100161.72
2022-08-09T04:23:25.696Z,100160.06
2022-08-09T04:24:58.541Z,100162.34
2022-08-09T04:26:38.053Z,100163.38
2022-08-09T04:28:10.865Z,100160.97
2022-08-09T04:29:49.573Z,100162.56
2022-08-09T04:31:22.667Z,100164.31
2022-08-09T04:33:09.498Z,100160.00
2022-08-09T04:34:47.782Z,100156.44
2022-08-09T04:36:30.530Z,100162.53
2022-08-09T04:38:03.948Z,100157.69
2022-08-09T04:39:40.538Z,100163.00
2022-08-09T04:41:13.406Z,100157.41
2022-08-09T04:42:45.584Z,100174.38
2022-08-09T04:44:20.905Z,100157.88
2022-08-09T04:45:55.674Z,100158.47
2022-08-09T04:47:59.424Z,100166.22
2022-08-09T04:49:40.235Z,100162.19
2022-08-09T04:51:18.854Z,100166.66
2022-08-09T04:52:52.815Z,100163.31
2022-08-09T04:54:25.866Z,100159.28
2022-08-09T04:55:59.691Z,100162.06
2022-08-09T04:57:58.624Z,100166.44
2022-08-09T04:59:25.136Z,100166.84
2022-08-09T05:01:02.440Z,100156.28
2022-08-09T05:02:36.031Z,100157.31
2022-08-09T05:04:08.281Z,100147.84
2022-08-09T05:05:52.056Z,100153.38
2022-08-09T05:07:27.874Z,100158.50
2022-08-09T05:09:04.254Z,100154.56
2022-08-09T05:10:36.782Z,100154.19
2022-08-09T05:12:09.808Z,100146.56
2022-08-09T05:13:44.687Z,100150.94
2022-08-09T05:15:38.511Z,100150.44
2022-08-09T05:18:36.944Z,100151.41
2022-08-09T05:19:02.106Z,100155.66
2022-08-09T05:20:35.182Z,100150.47
2022-08-09T05:22:54.230Z,100140.41
2022-08-09T05:24:05.479Z,100139.97
2022-08-09T05:25:37.960Z,100143.66
2022-08-09T05:27:10.147Z,100147.41
2022-08-09T05:28:46.018Z,100144.44
2022-08-09T05:30:21.322Z,100148.25
2022-08-09T05:31:56.334Z,100150.56
2022-08-09T05:33:33.178Z,100153.44
2022-08-09T05:35:05.956Z,100152.09
2022-08-09T05:36:40.246Z,100148.03
2022-08-09T05:38:21.846Z,100153.22
2022-08-09T05:39:54.542Z,100155.84
2022-08-09T05:41:27.462Z,100156.19
2022-08-09T05:42:59.898Z,100155.97
2022-08-09T05:44:34.955Z,100145.09
2022-08-09T05:46:08.174Z,100146.91
2022-08-09T05:47:52.117Z,100152.75
2022-08-09T05:50:24.348Z,100141.78
2022-08-09T05:51:43.097Z,100156.50
2022-08-09T05:53:11.777Z,100147.50
2022-08-09T05:54:55.265Z,100152.56
2022-08-09T05:56:27.863Z,100149.63
2022-08-09T05:58:00.038Z,100155.22
2022-08-09T05:59:35.697Z,100156.75
2022-08-09T06:01:09.137Z,100149.94
2022-08-09T06:02:48.499Z,100152.06
2022-08-09T06:04:23.742Z,100156.28
2022-08-09T06:06:06.182Z,100152.22
2022-08-09T06:07:39.177Z,100159.94
2022-08-09T06:09:40.509Z,100157.84
2022-08-09T06:11:17.654Z,100164.19
2022-08-09T06:13:02.924Z,100160.84
2022-08-09T06:14:42.528Z,100165.03
2022-08-09T06:16:14.683Z,100175.53
2022-08-09T06:17:48.730Z,100171.28
2022-08-09T06:19:21.342Z,100169.88
2022-08-09T06:20:58.376Z,100178.22
2022-08-09T06:22:30.857Z,100169.63
2022-08-09T06:24:04.632Z,100173.66
2022-08-09T06:25:37.534Z,100177.75
2022-08-09T06:27:10.653Z,100170.00
2022-08-09T06:28:47.681Z,100176.50
2022-08-09T06:30:23.097Z,100179.53
2022-08-09T06:32:18.379Z,100191.41
2022-08-09T06:33:52.942Z,100183.69
2022-08-09T06:35:56.021Z,100177.22
2022-08-09T06:37:18.144Z,100177.06
2022-08-09T06:38:50.533Z,100176.50
2022-08-09T06:40:24.265Z,100175.41
2022-08-09T06:42:08.909Z,100182.47
2022-08-09T06:43:44.048Z,100174.09
2022-08-09T06:46:04.663Z,100179.69
2022-08-09T06:47:08.559Z,100190.22
2022-08-09T06:48:43.689Z,100177.63
2022-08-09T06:50:19.237Z,100182.50
2022-08-09T06:51:54.697Z,100183.88
2022-08-09T06:53:33.317Z,100188.13
2022-08-09T06:55:14.000Z,100181.13
2022-08-09T06:56:47.161Z,100172.75
2022-08-09T07:00:47.023Z,100179.75
2022-08-09T07:00:52.508Z,100182.56
2022-08-09T07:02:05.157Z,100181.84
2022-08-09T07:03:39.654Z,100192.38
2022-08-09T07:05:24.700Z,100187.41
2022-08-09T07:08:00.909Z,100185.25
2022-08-09T07:09:53.498Z,100190.78
2022-08-09T07:11:06.275Z,100198.50
2022-08-09T07:12:40.942Z,100185.94
2022-08-09T07:14:18.121Z,100193.75
2022-08-09T07:16:42.254Z,100193.03
2022-08-09T07:17:52.617Z,100198.59
2022-08-09T07:19:28.164Z,100194.41
2022-08-09T07:21:00.435Z,100197.22
2022-08-09T07:22:34.830Z,100191.59
2022-08-09T07:24:16.383Z,100196.56
2022-08-09T07:25:52.474Z,100195.19
2022-08-09T07:27:42.988Z,100204.31
2022-08-09T07:29:25.888Z,100205.00
2022-08-09T07:31:05.022Z,100197.97
2022-08-09T07:32:37.363Z,100199.34
2022-08-09T07:34:19.605Z,100201.41
2022-08-09T07:35:54.721Z,100198.59
2022-08-09T07:37:27.045Z,100197.91
2022-08-09T07:39:00.425Z,100207.00
2022-08-09T07:41:00.654Z,100203.47
2022-08-09T07:42:32.790Z,100206.31
2022-08-09T07:44:05.488Z,100201.41
2022-08-09T07:45:40.571Z,100201.41
2022-08-09T07:47:13.317Z,100209.09
2022-08-09T07:48:58.972Z,100211.19
2022-08-09T07:50:36.314Z,100209.75
2022-08-09T07:52:16.852Z,100207.59
2022-08-09T07:54:05.165Z,100211.03
2022-08-09T07:55:41.384Z,100211.72
2022-08-09T07:57:36.116Z,100211.09
2022-08-09T07:59:14.063Z,100213.97
2022-08-09T08:00:49.307Z,100213.94
2022-08-09T08:02:34.505Z,100217.50
2022-08-09T08:04:10.622Z,100212.63
2022-08-09T08:05:54.806Z,100218.22
2022-08-09T08:08:42.802Z,100217.59
2022-08-09T08:09:41.098Z,100209.16
2022-08-09T08:12:24.054Z,100212.56
2022-08-09T08:13:10.405Z,100214.72
2022-08-09T08:14:43.337Z,100208.44
2022-08-09T08:16:29.519Z,100215.47
2022-08-09T08:18:04.329Z,100220.41
2022-08-09T08:19:36.853Z,100214.09
2022-08-09T08:21:09.455Z,100206.38
2022-08-09T08:22:41.789Z,100200.78
2022-08-09T08:24:16.741Z,100200.09
2022-08-09T08:25:50.386Z,100204.97
2022-08-09T08:27:27.151Z,100209.84
2022-08-09T08:29:13.162Z,100196.38
2022-08-09T08:30:47.519Z,100210.31
2022-08-09T08:32:28.694Z,100199.13
2022-08-09T08:34:01.910Z,100208.91
2022-08-09T08:35:52.947Z,100208.19
2022-08-09T08:37:41.514Z,100196.88
2022-08-09T08:39:22.006Z,100204.38
2022-08-09T08:40:55.761Z,100201.47
2022-08-09T08:42:32.109Z,100201.38
2022-08-09T08:44:04.691Z,100199.84
2022-08-09T08:45:43.317Z,100200.56
2022-08-09T08:47:27.523Z,100210.34
2022-08-09T08:49:01.660Z,100206.25
2022-08-09T08:50:34.438Z,100213.63
2022-08-09T08:52:09.990Z,100206.44
2022-08-09T08:54:03.863Z,100206.38
2022-08-09T08:55:35.791Z,100212.53
2022-08-09T08:57:11.314Z,100211.69
2022-08-09T08:58:46.500Z,100221.28
2022-08-09T09:00:20.702Z,100209.09
2022-08-09T09:02:00.345Z,100213.88
2022-08-09T09:03:38.249Z,100205.38
2022-08-09T09:05:12.244Z,100198.34
2022-08-09T09:06:46.219Z,100201.56
2022-08-09T09:08:29.743Z,100211.28
2022-08-09T09:10:09.119Z,100202.97
2022-08-09T09:11:42.141Z,100199.34
2022-08-09T09:13:17.794Z,100208.34
2022-08-09T09:14:52.045Z,100204.66
2022-08-09T09:16:29.906Z,100207.78
2022-08-09T09:18:03.921Z,100205.81
2022-08-09T09:19:41.463Z,100199.50
2022-08-09T09:21:13.994Z,100207.91
2022-08-09T09:22:55.551Z,100207.16
2022-08-09T09:24:28.990Z,100207.03
2022-08-09T09:26:12.469Z,100193.97
2022-08-09T09:28:03.740Z,100197.19
2022-08-09T09:30:12.257Z,100204.97
2022-08-09T09:32:01.869Z,100201.00
2022-08-09T09:33:44.403Z,100206.81
2022-08-09T09:35:20.335Z,100203.06
2022-08-09T09:36:54.714Z,100205.00
2022-08-09T09:39:02.578Z,100198.00
2022-08-09T09:40:46.167Z,100195.31
2022-08-09T09:42:25.568Z,100196.78
2022-08-09T09:44:12.221Z,100198.97
2022-08-09T09:47:58.766Z,100203.91
2022-08-09T09:50:07.179Z,100199.25
2022-08-09T09:51:26.126Z,100196.47
2022-08-09T09:53:15.296Z,100197.84
2022-08-09T09:54:55.687Z,100205.56
2022-08-09T09:56:35.947Z,100203.63
2022-08-09T09:58:16.257Z,100199.41
2022-08-09T09:59:52.066Z,100198.22
2022-08-09T10:01:31.351Z,100196.25
2022-08-09T10:03:13.899Z,100197.00
2022-08-09T10:05:02.167Z,100198.47
2022-08-09T10:06:42.638Z,100197.75
2022-08-09T10:08:27.751Z,100192.28
2022-08-09T10:10:03.072Z,100195.09
2022-08-09T10:12:04.405Z,100194.44
2022-08-09T10:13:43.308Z,100191.84
2022-08-09T10:15:36.812Z,100195.44
2022-08-09T10:17:38.815Z,100191.41
2022-08-09T10:19:06.722Z,100178.97
2022-08-09T10:20:45.541Z,100177.75
2022-08-09T10:22:18.401Z,100177.94
2022-08-09T10:24:04.264Z,100171.84
2022-08-09T10:26:07.185Z,100175.47
2022-08-09T10:27:34.599Z,100183.38
2022-08-09T10:29:13.725Z,100166.22
2022-08-09T10:32:27.703Z,100171.38
2022-08-09T10:32:58.259Z,100166.91
2022-08-09T10:34:33.925Z,100171.28
2022-08-09T10:36:12.427Z,100174.34
2022-08-09T10:37:45.213Z,100181.44
2022-08-09T10:39:19.468Z,100170.97
2022-08-09T10:40:52.327Z,100177.56
2022-08-09T10:42:26.968Z,100176.53
2022-08-09T10:44:01.925Z,100174.94
2022-08-09T10:45:35.355Z,100169.78
2022-08-09T10:48:12.058Z,100166.63
2022-08-09T10:49:21.732Z,100169.75
2022-08-09T10:51:41.079Z,100171.19
2022-08-09T10:53:23.203Z,100168.53
2022-08-09T10:54:56.223Z,100170.72
2022-08-09T10:56:29.969Z,100177.72
2022-08-09T10:58:03.570Z,100166.56
2022-08-09T10:59:55.368Z,100173.56
2022-08-09T11:03:14.939Z,100167.97
2022-08-09T11:03:50.979Z,100163.94
2022-08-09T11:05:24.870Z,100161.31
2022-08-09T11:07:03.017Z,100165.75
2022-08-09T11:08:47.427Z,100163.84
2022-08-09T11:10:38.915Z,100164.56
2022-08-09T11:12:20.683Z,100159.56
2022-08-09T11:14:11.787Z,100163.06
2022-08-09T11:16:05.017Z,100158.13
2022-08-09T11:17:42.035Z,100154.25
2022-08-09T11:19:14.375Z,100142.63
2022-08-09T11:20:52.918Z,100136.50
2022-08-09T11:22:57.020Z,100144.22
2022-08-09T11:24:50.823Z,100144.19
2022-08-09T11:26:38.774Z,100138.66
2022-08-09T11:28:38.900Z,100137.94
2022-08-09T11:30:32.876Z,100138.69
2022-08-09T11:32:07.005Z,100131.69
2022-08-09T11:34:51.433Z,100140.59
2022-08-09T11:36:35.550Z,100134.88
2022-08-09T11:38:32.339Z,100138.91
2022-08-09T11:40:09.211Z,100142.22
2022-08-09T11:41:42.107Z,100135.13
2022-08-09T11:43:32.307Z,100138.47
2022-08-09T11:45:05.643Z,100135.50
2022-08-09T11:46:57.382Z,100132.59
2022-08-09T11:48:32.336Z,100135.34
2022-08-09T11:50:53.083Z,100126.84
2022-08-09T11:53:01.111Z,100126.25
2022-08-09T11:54:33.091Z,100123.53
2022-08-09T11:56:19.522Z,100128.41
2022-08-09T11:58:30.290Z,100129.81
2022-08-09T12:00:16.440Z,100129.13
2022-08-09T12:02:34.542Z,100126.53
2022-08-09T12:03:55.327Z,100123.28
2022-08-09T12:05:37.901Z,100126.38
2022-08-09T12:07:14.302Z,100116.78
2022-08-09T12:08:52.029Z,100112.72
2022-08-09T12:10:38.698Z,100111.97
2022-08-09T12:12:28.759Z,100111.38
2022-08-09T12:14:18.072Z,100111.47
2022-08-09T12:16:18.775Z,100117.19
2022-08-09T12:18:05.901Z,100119.22
2022-08-09T12:19:43.796Z,100126.81
2022-08-09T12:21:39.272Z,100117.63
2022-08-09T12:23:47.625Z,100111.25
2022-08-09T12:25:36.582Z,100116.75
2022-08-09T12:29:00.150Z,100113.38
2022-08-09T12:29:32.985Z,100107.31
2022-08-09T12:31:30.826Z,100111.03
2022-08-09T12:33:21.248Z,100097.13
2022-08-09T12:35:02.703Z,100098.56
2022-08-09T12:36:49.956Z,100096.44
2022-08-09T12:38:37.797Z,100090.94
2022-08-09T12:40:12.372Z,100085.38
2022-08-09T12:41:47.704Z,100094.44
2022-08-09T12:44:05.783Z,100101.34
2022-08-09T12:45:33.451Z,100096.25
2022-08-09T12:47:09.052Z,100093.38
2022-08-09T12:48:44.775Z,100098.13
2022-08-09T12:50:23.651Z,100096.69
2022-08-09T12:52:02.274Z,100082.47
2022-08-09T12:53:44.947Z,100085.78
2022-08-09T12:56:14.985Z,100076.56
2022-08-09T12:57:39.399Z,100091.97
2022-08-09T12:59:20.811Z,100080.19
2022-08-09T13:00:53.364Z,100074.00
2022-08-09T13:02:31.944Z,100072.75
2022-08-09T13:04:08.090Z,100079.91
2022-08-09T13:06:14.937Z,100069.53
2022-08-09T13:08:11.495Z,100077.97
2022-08-09T13:09:55.975Z,100066.19
2022-08-09T13:11:42.230Z,100056.50
2022-08-09T13:13:17.669Z,100068.53
2022-08-09T13:14:53.626Z,100072.16
2022-08-09T13:16:46.202Z,100056.78
2022-08-09T13:18:20.118Z,100056.03
2022-08-09T13:20:10.334Z,100058.16
2022-08-09T13:23:00.687Z,100054.66
2022-08-09T13:24:16.270Z,100055.38
2022-08-09T13:25:53.393Z,100052.56
2022-08-09T13:27:39.428Z,100056.03
2022-08-09T13:29:28.625Z,100060.06
2022-08-09T13:32:14.482Z,100069.13
2022-08-09T13:33:11.591Z,100061.31
2022-08-09T13:34:44.921Z,100061.97
2022-08-09T13:36:24.272Z,100041.00
2022-08-09T13:38:33.021Z,100066.13
2022-08-09T13:41:56.384Z,100056.31
2022-08-09T13:42:17.939Z,100057.03
2022-08-09T13:43:50.567Z,100049.28
2022-08-09T13:45:32.269Z,100052.03
2022-08-09T13:47:31.126Z,100042.22
2022-08-09T13:49:17.985Z,100047.13
2022-08-09T13:50:51.170Z,100052.06
2022-08-09T13:52:23.693Z,100056.94
2022-08-09T13:53:57.153Z,100065.31
2022-08-09T13:55:30.372Z,100056.94
2022-08-09T13:57:06.508Z,100054.09
2022-08-09T13:58:39.010Z,100057.59
2022-08-09T14:00:13.469Z,100036.72
2022-08-09T14:02:00.444Z,100053.50
2022-08-09T14:04:04.897Z,100032.63
2022-08-09T14:05:57.444Z,100048.72
2022-08-09T14:07:20.138Z,100051.50
2022-08-09T14:08:54.505Z,100054.38
2022-08-09T14:10:46.607Z,100050.19
2022-08-09T14:12:19.399Z,100057.16
2022-08-09T14:14:23.469Z,100055.78
2022-08-09T14:16:09.465Z,100041.84
2022-08-09T14:18:18.704Z,100046.78
2022-08-09T14:19:33.833Z,100053.06
2022-08-09T14:21:06.522Z,100063.53
2022-08-09T14:22:38.878Z,100062.16
2022-08-09T14:24:18.585Z,100061.41
2022-08-09T14:25:59.503Z,100055.72
2022-08-09T14:27:37.056Z,100064.72
2022-08-09T14:30:04.244Z,100053.50
2022-08-09T14:31:23.516Z,100047.19
2022-08-09T14:33:11.557Z,100060.44
2022-08-09T14:34:44.434Z,100061.16
2022-08-09T14:36:20.646Z,100047.19
2022-08-09T14:38:02.279Z,100046.47
2022-08-09T14:39:40.311Z,100052.00
2022-08-09T14:41:26.561Z,100062.47
2022-08-09T14:43:18.470Z,100053.34
2022-08-09T14:44:59.943Z,100065.13
2022-08-09T14:46:55.972Z,100068.59
2022-08-09T14:48:26.865Z,100048.97
2022-08-09T14:49:59.191Z,100069.91
2022-08-09T14:51:42.297Z,100055.88
2022-08-09T14:53:15.334Z,100055.16
2022-08-09T14:54:49.975Z,100049.56
2022-08-09T14:56:26.802Z,100051.69
2022-08-09T14:58:05.181Z,100046.84
2022-08-09T14:59:38.645Z,100048.97
2022-08-09T15:01:13.061Z,100045.50
2022-08-09T15:02:47.290Z,100054.56
2022-08-09T15:04:24.179Z,100049.75
2022-08-09T15:06:01.753Z,100050.41
2022-08-09T15:07:36.799Z,100046.91
2022-08-09T15:09:09.075Z,100039.81
2022-08-09T15:10:42.225Z,100050.25
2022-08-09T15:12:14.448Z,100050.88
2022-08-09T15:13:56.405Z,100024.28
2022-08-09T15:15:39.528Z,100043.72
2022-08-09T15:17:12.071Z,100041.59
2022-08-09T15:18:49.326Z,100039.50
2022-08-09T15:21:55.733Z,100033.91
2022-08-09T15:22:14.726Z,100031.84
2022-08-09T15:24:02.744Z,100035.31
2022-08-09T15:25:41.910Z,100046.53
2022-08-09T15:27:14.075Z,100047.94
2022-08-09T15:28:55.013Z,100048.56
2022-08-09T15:31:00.670Z,100045.09
2022-08-09T15:32:29.414Z,100058.94
2022-08-09T15:34:27.368Z,100057.56
2022-08-09T15:36:02.254Z,100056.09
2022-08-09T15:37:56.826Z,100049.72
2022-08-09T15:39:44.014Z,100050.41
2022-08-09T15:41:31.328Z,100044.81
2022-08-09T15:43:04.735Z,100058.03
2022-08-09T15:44:40.426Z,100043.38
2022-08-09T15:46:31.884Z,100034.94
2022-08-09T15:48:28.320Z,100055.16
2022-08-09T15:50:04.910Z,100058.66
2022-08-09T15:52:01.950Z,100045.34
2022-08-09T15:54:03.984Z,100057.25
2022-08-09T15:55:24.038Z,100047.44
2022-08-09T15:56:56.743Z,100067.75
2022-08-09T15:58:28.965Z,100058.59
2022-08-09T16:00:01.955Z,100052.31
2022-08-09T16:01:37.377Z,100055.81
2022-08-09T16:03:09.944Z,100057.16
2022-08-09T16:04:51.557Z,100054.31
2022-08-09T16:06:32.628Z,100051.50
2022-08-09T16:08:24.676Z,100055.69
2022-08-09T16:10:06.219Z,100045.13
2022-08-09T16:11:51.557Z,100047.78
2022-08-09T16:14:04.017Z,100037.97
2022-08-09T16:16:10.446Z,100056.09
2022-08-09T16:17:18.612Z,100049.00
2022-08-09T16:18:54.539Z,100046.16
2022-08-09T16:20:30.211Z,100048.28
2022-08-09T16:22:02.824Z,100055.13
2022-08-09T16:23:35.404Z,100051.66
2022-08-09T16:25:09.296Z,100052.28
2022-08-09T16:26:43.028Z,100056.47
2022-08-09T16:28:25.669Z,100045.91
2022-08-09T16:30:01.093Z,100043.75
2022-08-09T16:31:37.966Z,100049.28
2022-08-09T16:33:31.021Z,100049.22
2022-08-09T16:35:07.784Z,100054.09
2022-08-09T16:36:43.623Z,100054.78
2022-08-09T16:38:19.014Z,100054.69
2022-08-09T16:40:05.603Z,100067.25
2022-08-09T16:42:03.015Z,100055.34
2022-08-09T16:43:31.311Z,100051.03
2022-08-09T16:45:05.808Z,100048.94
2022-08-09T16:46:39.406Z,100057.19
2022-08-09T16:48:40.194Z,100059.81
2022-08-09T16:50:29.870Z,100061.16
2022-08-09T16:52:06.334Z,100055.47
2022-08-09T16:54:26.045Z,100064.50
2022-08-09T16:55:58.532Z,100060.31
2022-08-09T16:58:08.223Z,100061.78
2022-08-09T16:59:23.059Z,100057.44
2022-08-09T17:00:56.419Z,100072.69
2022-08-09T17:02:30.818Z,100067.63
2022-08-09T17:04:05.496Z,100071.69
2022-08-09T17:06:09.328Z,100072.19
2022-08-09T17:08:42.897Z,100066.38
2022-08-09T17:09:45.440Z,100066.19
2022-08-09T17:11:17.471Z,100063.91
2022-08-09T17:12:57.254Z,100068.66
2022-08-09T17:14:30.138Z,100072.72
2022-08-09T17:16:02.695Z,100070.50
2022-08-09T17:17:51.034Z,100075.97
2022-08-09T17:19:23.885Z,100078.63
2022-08-09T17:20:59.123Z,100079.31
2022-08-09T17:22:32.982Z,100081.34
2022-08-09T17:24:28.217Z,100072.81
2022-08-09T17:26:01.787Z,100074.06
2022-08-09T17:27:38.165Z,100081.53
2022-08-09T17:29:11.674Z,100093.94
2022-08-09T17:30:52.818Z,100093.25
2022-08-09T17:32:28.293Z,100091.84
2022-08-09T17:35:00.869Z,100097.47
2022-08-09T17:36:02.265Z,100091.81
2022-08-09T17:38:14.193Z,100090.38
2022-08-09T17:39:28.024Z,100099.41
2022-08-09T17:41:22.715Z,100094.53
2022-08-09T17:43:33.454Z,100095.63
2022-08-09T17:45:06.465Z,100101.00
2022-08-09T17:46:39.097Z,100095.13
2022-08-09T17:48:29.107Z,100101.13
2022-08-09T17:50:14.087Z,100107.28
2022-08-09T17:51:50.518Z,100113.25
2022-08-09T17:53:23.454Z,100110.19
2022-08-09T17:54:55.761Z,100110.75
2022-08-09T17:56:35.582Z,100116.91
2022-08-09T17:58:11.012Z,100118.13
2022-08-09T17:59:43.614Z,100118.13
2022-08-09T18:01:58.181Z,100118.63
2022-08-09T18:03:25.049Z,100118.66
2022-08-09T18:04:57.339Z,100116.00
2022-08-09T18:06:32.203Z,100117.97
2022-08-09T18:08:05.974Z,100122.56
2022-08-09T18:09:43.895Z,100121.06
2022-08-09T18:12:04.870Z,100118.00
2022-08-09T18:13:43.019Z,100131.00
2022-08-09T18:16:05.380Z,100136.50
2022-08-09T18:17:27.517Z,100136.44
2022-08-09T18:20:57.182Z,100132.72
2022-08-09T18:21:19.267Z,100135.28
2022-08-09T18:22:55.841Z,100139.28
2022-08-09T18:24:28.538Z,100137.81
2022-08-09T18:26:03.519Z,100147.47
2022-08-09T18:28:05.360Z,100145.22
2022-08-09T18:30:37.727Z,100149.28
2022-08-09T18:31:32.512Z,100157.41
2022-08-09T18:33:15.032Z,100159.22
2022-08-09T18:34:48.184Z,100164.00
2022-08-09T18:36:25.564Z,100172.28
2022-08-09T18:38:04.774Z,100170.28
2022-08-09T18:39:41.912Z,100173.00
2022-08-09T18:41:16.386Z,100177.75
2022-08-09T18:42:48.740Z,100185.09
2022-08-09T18:44:27.580Z,100181.69
2022-08-09T18:46:49.337Z,100181.47
2022-08-09T18:47:52.719Z,100195.13
2022-08-09T18:49:25.274Z,100191.22
2022-08-09T18:50:57.491Z,100189.00
2022-08-09T18:52:35.017Z,100213.22
2022-08-09T18:54:16.517Z,100206.97
2022-08-09T18:55:56.517Z,100207.59
2022-08-09T18:57:43.027Z,100210.97
2022-08-09T18:59:16.126Z,100208.34
2022-08-09T19:00:48.331Z,100213.63
2022-08-09T19:02:24.110Z,100218.34
2022-08-09T19:04:08.361Z,100230.09
2022-08-09T19:06:02.790Z,100207.94
2022-08-09T19:07:33.836Z,100214.72
2022-08-09T19:09:07.826Z,100221.03
2022-08-09T19:10:46.225Z,100216.78
2022-08-09T19:12:20.835Z,100219.44
2022-08-09T19:13:54.031Z,100218.13
2022-08-09T19:15:32.874Z,100222.22
2022-08-09T19:17:05.280Z,100226.28
2022-08-09T19:18:45.319Z,100225.41